Time,TemperatureF,DewpointF,PressureIn,WindDirection,WindDirectionDegrees,WindSpeedMPH,WindSpeedGustMPH,Humidity,HourlyPrecipIn,Conditions,Clouds,dailyrainin,SoftwareType,DateUTC
2013-06-27 00:02:00,71.2,67.5,30.03,NNE,15,6.0,6.0,88,0.00,,,0.00,VWS V14.01,2013-06-27 10:02:00,
2013-06-27 00:07:00,71.1,67.4,30.03,NE,43,4.0,5.0,88,0.00,,,0.00,VWS V14.01,2013-06-27 10:07:00,
2013-06-27 00:12:00,71.1,67.4,30.02,NNE,12,5.0,5.0,88,0.00,,,0.00,VWS V14.01,2013-06-27 10:12:00,
2013-06-27 00:17:00,71.1,67.4,30.02,NNE,28,7.0,7.0,88,0.00,,,0.00,VWS V14.01,2013-06-27 10:17:00,
2013-06-27 00:22:00,71.1,67.4,30.02,NNE,21,10.0,11.0,88,0.00,,,0.00,VWS V14.01,2013-06-27 10:22:00,
2013-06-27 00:23:00,71.1,67.4,30.02,North,9,12.0,14.0,88,0.00,,,0.00,VWS V14.01,2013-06-27 10:23:00,
2013-06-27 00:28:00,71.0,67.3,30.02,NE,44,7.0,8.0,88,0.00,,,0.00,VWS V14.01,2013-06-27 10:28:00,
2013-06-27 00:33:00,70.9,67.2,30.02,NE,56,4.0,5.0,88,0.00,,,0.00,VWS V14.01,2013-06-27 10:33:00,
2013-06-27 00:38:00,70.8,67.1,30.02,NNE,24,9.0,9.0,88,0.00,,,0.00,VWS V14.01,2013-06-27 10:38:00,
2013-06-27 00:43:00,70.9,67.2,30.02,NNE,23,4.0,7.0,88,0.00,,,0.00,VWS V14.01,2013-06-27 10:43:00,
2013-06-27 00:48:00,70.9,66.8,30.02,NE,47,9.0,9.0,87,0.00,,,0.00,VWS V14.01,2013-06-27 10:48:00,
2013-06-27 00:54:00,71.0,66.9,30.02,NNE,28,3.0,6.0,87,0.00,,,0.00,VWS V14.01,2013-06-27 10:54:00,
2013-06-27 00:59:00,70.9,66.8,30.01,North,2,4.0,4.0,87,0.00,,,0.00,VWS V14.01,2013-06-27 10:59:00,
2013-06-27 01:04:00,70.7,67.0,30.01,NE,47,4.0,4.0,88,0.00,,,0.00,VWS V14.01,2013-06-27 11:04:00,
2013-06-27 01:09:00,70.7,66.7,30.01,NE,40,4.0,4.0,87,0.00,,,0.00,VWS V14.01,2013-06-27 11:09:00,
2013-06-27 01:14:00,70.8,66.7,30.01,East,79,8.0,8.0,87,0.00,,,0.00,VWS V14.01,2013-06-27 11:14:00,
2013-06-27 01:19:00,70.8,66.4,30.01,NNE,22,7.0,7.0,86,0.00,,,0.00,VWS V14.01,2013-06-27 11:19:00,
2013-06-27 01:24:00,70.6,66.6,30.01,NE,44,4.0,5.0,87,0.00,,,0.00,VWS V14.01,2013-06-27 11:24:00,
2013-06-27 01:29:00,70.4,66.3,30.00,NNE,21,8.0,8.0,87,0.00,,,0.00,VWS V14.01,2013-06-27 11:29:00,
2013-06-27 01:34:00,70.5,66.4,30.00,NNE,12,7.0,9.0,87,0.00,,,0.00,VWS V14.01,2013-06-27 11:34:00,
2013-06-27 01:40:00,70.5,66.4,30.00,NE,43,8.0,10.0,87,0.00,,,0.00,VWS V14.01,2013-06-27 11:40:00,
2013-06-27 01:45:00,70.4,66.0,30.00,NE,38,6.0,6.0,86,0.00,,,0.00,VWS V14.01,2013-06-27 11:45:00,
2013-06-27 01:50:00,70.4,66.0,30.00,NNE,21,9.0,9.0,86,0.00,,,0.00,VWS V14.01,2013-06-27 11:50:00,
2013-06-27 01:55:00,70.3,66.2,30.00,NNE,33,7.0,7.0,87,0.00,,,0.00,VWS V14.01,2013-06-27 11:55:00,
2013-06-27 02:00:00,70.3,65.9,29.99,NNE,23,7.0,10.0,86,0.00,,,0.00,VWS V14.01,2013-06-27 12:00:00,
2013-06-27 02:05:00,70.2,65.8,29.99,NE,47,6.0,8.0,86,0.00,,,0.00,VWS V14.01,2013-06-27 12:05:00,
2013-06-27 02:10:00,70.2,65.8,29.99,NNE,26,10.0,10.0,86,0.00,,,0.00,VWS V14.01,2013-06-27 12:10:00,
2013-06-27 02:15:00,70.2,65.8,29.99,NNE,29,3.0,3.0,86,0.00,,,0.00,VWS V14.01,2013-06-27 12:15:00,
2013-06-27 02:20:00,70.2,65.8,29.99,North,11,2.0,3.0,86,0.00,,,0.00,VWS V14.01,2013-06-27 12:20:00,
2013-06-27 02:26:00,70.0,65.6,29.99,NNE,25,6.0,6.0,86,0.00,,,0.00,VWS V14.01,2013-06-27 12:26:00,
2013-06-27 02:31:00,70.0,66.0,29.99,NNE,28,5.0,6.0,87,0.00,,,0.00,VWS V14.01,2013-06-27 12:31:00,
2013-06-27 02:36:00,69.8,65.8,29.99,NNE,20,3.0,3.0,87,0.00,,,0.00,VWS V14.01,2013-06-27 12:36:00,
2013-06-27 02:41:00,69.8,65.8,29.99,ENE,64,6.0,6.0,87,0.00,,,0.00,VWS V14.01,2013-06-27 12:41:00,
2013-06-27 02:46:00,70.1,66.1,29.99,NNE,21,6.0,8.0,87,0.00,,,0.00,VWS V14.01,2013-06-27 12:46:00,
2013-06-27 02:51:00,70.1,66.1,29.99,NNE,12,7.0,11.0,87,0.00,,,0.00,VWS V14.01,2013-06-27 12:51:00,
2013-06-27 02:56:00,70.2,66.2,29.99,NNE,12,4.0,4.0,87,0.00,,,0.00,VWS V14.01,2013-06-27 12:56:00,
2013-06-27 03:02:00,70.1,66.1,29.98,NE,43,6.0,7.0,87,0.00,,,0.00,VWS V14.01,2013-06-27 13:02:00,
2013-06-27 03:07:00,70.2,66.2,29.99,NNE,28,6.0,6.0,87,0.00,,,0.00,VWS V14.01,2013-06-27 13:07:00,
2013-06-27 03:12:00,70.2,66.2,29.99,NNE,31,6.0,6.0,87,0.00,,,0.00,VWS V14.01,2013-06-27 13:12:00,
2013-06-27 03:17:00,70.1,66.1,29.99,North,353,5.0,5.0,87,0.00,,,0.00,VWS V14.01,2013-06-27 13:17:00,
2013-06-27 03:22:00,70.0,66.0,29.98,NNE,14,6.0,7.0,87,0.00,,,0.00,VWS V14.01,2013-06-27 13:22:00,
2013-06-27 03:27:00,69.9,65.9,29.98,NE,48,4.0,4.0,87,0.00,,,0.00,VWS V14.01,2013-06-27 13:27:00,
2013-06-27 03:32:00,70.0,66.0,29.98,North,360,7.0,7.0,87,0.00,,,0.00,VWS V14.01,2013-06-27 13:32:00,
2013-06-27 03:37:00,69.9,65.5,29.98,NNE,21,6.0,7.0,86,0.00,,,0.00,VWS V14.01,2013-06-27 13:37:00,
2013-06-27 03:42:00,69.9,65.9,29.98,North,5,5.0,5.0,87,0.00,,,0.00,VWS V14.01,2013-06-27 13:42:00,
2013-06-27 03:47:00,70.0,65.6,29.98,North,353,9.0,9.0,86,0.00,,,0.00,VWS V14.01,2013-06-27 13:47:00,
2013-06-27 03:52:00,70.1,65.4,29.98,NNE,23,9.0,9.0,85,0.00,,,0.00,VWS V14.01,2013-06-27 13:52:00,
2013-06-27 03:57:00,70.3,65.6,29.98,NE,44,7.0,7.0,85,0.00,,,0.00,VWS V14.01,2013-06-27 13:57:00,
2013-06-27 04:02:00,70.2,65.5,29.98,NNE,14,9.0,9.0,85,0.00,,,0.00,VWS V14.01,2013-06-27 14:02:00,
2013-06-27 04:07:00,70.3,65.6,29.98,NNE,19,5.0,6.0,85,0.00,,,0.00,VWS V14.01,2013-06-27 14:07:00,
2013-06-27 04:12:00,70.2,65.8,29.98,NE,47,3.0,3.0,86,0.00,,,0.00,VWS V14.01,2013-06-27 14:12:00,
2013-06-27 04:18:00,70.2,65.8,29.98,ENE,57,7.0,7.0,86,0.00,,,0.00,VWS V14.01,2013-06-27 14:18:00,
2013-06-27 04:23:00,70.3,65.9,29.98,NE,43,4.0,6.0,86,0.00,,,0.00,VWS V14.01,2013-06-27 14:23:00,
2013-06-27 04:28:00,70.2,65.8,29.98,NNE,31,4.0,6.0,86,0.00,,,0.00,VWS V14.01,2013-06-27 14:28:00,
2013-06-27 04:33:00,70.2,65.8,29.98,ENE,58,4.0,5.0,86,0.00,,,0.00,VWS V14.01,2013-06-27 14:33:00,
2013-06-27 04:38:00,70.4,65.7,29.98,NNE,27,4.0,4.0,85,0.00,,,0.00,VWS V14.01,2013-06-27 14:38:00,
2013-06-27 04:43:00,70.4,66.0,29.98,NE,39,4.0,6.0,86,0.00,,,0.00,VWS V14.01,2013-06-27 14:43:00,
2013-06-27 04:48:00,70.5,66.1,29.98,NE,52,5.0,5.0,86,0.00,,,0.00,VWS V14.01,2013-06-27 14:48:00,
2013-06-27 04:53:00,70.5,66.1,29.98,NNE,33,7.0,7.0,86,0.00,,,0.00,VWS V14.01,2013-06-27 14:53:00,
2013-06-27 04:58:00,70.4,66.0,29.98,NNE,21,3.0,4.0,86,0.00,,,0.00,VWS V14.01,2013-06-27 14:58:00,
2013-06-27 05:03:00,70.3,65.9,29.98,NNE,22,5.0,5.0,86,0.00,,,0.00,VWS V14.01,2013-06-27 15:03:00,
2013-06-27 05:09:00,70.3,65.9,29.98,North,7,8.0,9.0,86,0.00,,,0.00,VWS V14.01,2013-06-27 15:09:00,
2013-06-27 05:14:00,70.2,65.8,29.98,NNE,21,3.0,5.0,86,0.00,,,0.00,VWS V14.01,2013-06-27 15:14:00,
2013-06-27 05:19:00,70.0,66.0,29.98,NE,36,3.0,4.0,87,0.00,,,0.00,VWS V14.01,2013-06-27 15:19:00,
2013-06-27 05:24:00,69.9,65.9,29.97,NNE,28,2.0,3.0,87,0.00,,,0.00,VWS V14.01,2013-06-27 15:24:00,
2013-06-27 05:29:00,69.9,65.9,29.97,North,8,6.0,9.0,87,0.00,,,0.00,VWS V14.01,2013-06-27 15:29:00,
2013-06-27 05:34:00,70.0,65.6,29.98,NNE,33,6.0,6.0,86,0.00,,,0.00,VWS V14.01,2013-06-27 15:34:00,
2013-06-27 05:39:00,70.1,65.7,29.98,NNE,16,7.0,7.0,86,0.00,,,0.00,VWS V14.01,2013-06-27 15:39:00,
2013-06-27 05:44:00,70.1,65.7,29.98,North,360,8.0,8.0,86,0.00,,,0.00,VWS V14.01,2013-06-27 15:44:00,
2013-06-27 05:49:00,70.1,65.4,29.98,North,7,4.0,8.0,85,0.00,,,0.00,VWS V14.01,2013-06-27 15:49:00,
2013-06-27 05:54:00,70.2,65.5,29.98,NNE,20,6.0,6.0,85,0.00,,,0.00,VWS V14.01,2013-06-27 15:54:00,
2013-06-27 06:00:00,70.4,65.7,29.98,NNE,21,6.0,8.0,85,0.00,,,0.00,VWS V14.01,2013-06-27 16:00:00,
2013-06-27 06:05:00,70.4,65.7,29.99,ENE,58,6.0,6.0,85,0.00,,,0.00,VWS V14.01,2013-06-27 16:05:00,
2013-06-27 06:10:00,70.3,65.2,29.99,NE,40,7.0,7.0,84,0.00,,,0.00,VWS V14.01,2013-06-27 16:10:00,
2013-06-27 06:15:00,70.5,65.1,29.99,NNW,343,9.0,9.0,83,0.00,,,0.00,VWS V14.01,2013-06-27 16:15:00,
2013-06-27 06:20:00,70.9,65.1,29.99,NNE,16,8.0,8.0,82,0.00,,,0.00,VWS V14.01,2013-06-27 16:20:00,
2013-06-27 06:25:00,71.3,65.2,29.99,NNE,16,9.0,10.0,81,0.00,,,0.00,VWS V14.01,2013-06-27 16:25:00,
2013-06-27 06:30:00,71.4,65.3,29.99,NE,42,9.0,9.0,81,0.00,,,0.00,VWS V14.01,2013-06-27 16:30:00,
2013-06-27 06:35:00,71.2,65.1,29.99,NNE,21,8.0,8.0,81,0.00,,,0.00,VWS V14.01,2013-06-27 16:35:00,
2013-06-27 06:40:00,71.4,65.6,29.99,NE,41,3.0,3.0,82,0.00,,,0.00,VWS V14.01,2013-06-27 16:40:00,
2013-06-27 06:45:00,72.0,65.9,29.99,NNE,15,4.0,4.0,81,0.00,,,0.00,VWS V14.01,2013-06-27 16:45:00,
2013-06-27 06:50:00,72.6,66.1,30.00,NE,52,3.0,3.0,80,0.00,,,0.00,VWS V14.01,2013-06-27 16:50:00,
2013-06-27 06:55:00,72.8,65.9,30.00,North,8,8.0,8.0,79,0.00,,,0.00,VWS V14.01,2013-06-27 16:55:00,
2013-06-27 07:00:00,72.8,65.6,30.00,ENE,57,5.0,8.0,78,0.00,,,0.00,VWS V14.01,2013-06-27 17:00:00,
2013-06-27 07:05:00,72.9,65.7,30.00,ENE,59,8.0,8.0,78,0.00,,,0.00,VWS V14.01,2013-06-27 17:05:00,
2013-06-27 07:11:00,72.8,65.6,30.00,NE,54,7.0,7.0,78,0.00,,,0.00,VWS V14.01,2013-06-27 17:11:00,
2013-06-27 07:16:00,72.7,65.4,30.01,NNE,24,8.0,10.0,78,0.00,,,0.00,VWS V14.01,2013-06-27 17:16:00,
2013-06-27 07:21:00,72.9,65.3,30.01,North,2,10.0,12.0,77,0.00,,,0.00,VWS V14.01,2013-06-27 17:21:00,
2013-06-27 07:26:00,73.1,65.5,30.01,NNW,346,6.0,6.0,77,0.00,,,0.00,VWS V14.01,2013-06-27 17:26:00,
2013-06-27 07:31:00,73.7,66.1,30.01,ENE,72,6.0,7.0,77,0.00,,,0.00,VWS V14.01,2013-06-27 17:31:00,
2013-06-27 07:36:00,73.6,65.9,30.01,NNE,23,9.0,9.0,77,0.00,,,0.00,VWS V14.01,2013-06-27 17:36:00,
2013-06-27 07:41:00,73.5,65.5,30.01,NE,46,6.0,6.0,76,0.00,,,0.00,VWS V14.01,2013-06-27 17:41:00,
2013-06-27 07:46:00,73.5,65.1,30.01,NNE,13,15.0,15.0,75,0.00,,,0.00,VWS V14.01,2013-06-27 17:46:00,
2013-06-27 07:51:00,73.3,65.3,30.02,NNE,16,4.0,9.0,76,0.00,,,0.00,VWS V14.01,2013-06-27 17:51:00,
2013-06-27 07:56:00,73.5,65.5,30.02,NNE,17,10.0,14.0,76,0.00,,,0.00,VWS V14.01,2013-06-27 17:56:00,
2013-06-27 08:01:00,74.0,66.0,30.02,NE,46,6.0,6.0,76,0.00,,,0.00,VWS V14.01,2013-06-27 18:01:00,
2013-06-27 08:06:00,74.2,65.8,30.02,East,84,8.0,12.0,75,0.00,,,0.00,VWS V14.01,2013-06-27 18:06:00,
2013-06-27 08:12:00,74.1,65.3,30.02,ENE,61,9.0,9.0,74,0.00,,,0.00,VWS V14.01,2013-06-27 18:12:00,
2013-06-27 08:17:00,74.3,65.5,30.02,NE,35,8.0,11.0,74,0.00,,,0.00,VWS V14.01,2013-06-27 18:17:00,
2013-06-27 08:22:00,74.8,66.0,30.02,ENE,69,10.0,11.0,74,0.00,,,0.00,VWS V14.01,2013-06-27 18:22:00,
2013-06-27 08:27:00,74.8,65.6,30.02,NE,48,10.0,13.0,73,0.00,,,0.00,VWS V14.01,2013-06-27 18:27:00,
2013-06-27 08:32:00,74.8,65.2,30.02,ESE,107,13.0,13.0,72,0.00,,,0.00,VWS V14.01,2013-06-27 18:32:00,
2013-06-27 08:37:00,75.1,65.9,30.01,NE,45,9.0,10.0,73,0.00,,,0.00,VWS V14.01,2013-06-27 18:37:00,
2013-06-27 08:42:00,75.2,66.0,30.01,NE,52,8.0,10.0,73,0.00,,,0.00,VWS V14.01,2013-06-27 18:42:00,
2013-06-27 08:47:00,75.3,64.8,30.01,NE,50,10.0,12.0,70,0.00,,,0.00,VWS V14.01,2013-06-27 18:47:00,
2013-06-27 08:52:00,75.0,64.6,30.01,ENE,60,13.0,13.0,70,0.00,,,0.00,VWS V14.01,2013-06-27 18:52:00,
2013-06-27 08:58:00,75.1,65.1,30.01,East,80,13.0,13.0,71,0.00,,,0.00,VWS V14.01,2013-06-27 18:58:00,
2013-06-27 09:03:00,75.2,66.0,30.01,ENE,73,14.0,14.0,73,0.00,,,0.00,VWS V14.01,2013-06-27 19:03:00,
2013-06-27 09:08:00,75.5,66.2,30.01,East,83,13.0,17.0,73,0.00,,,0.00,VWS V14.01,2013-06-27 19:08:00,
2013-06-27 09:13:00,75.5,65.4,30.01,East,94,11.0,11.0,71,0.00,,,0.00,VWS V14.01,2013-06-27 19:13:00,
2013-06-27 09:18:00,75.9,66.2,30.01,East,80,16.0,16.0,72,0.00,,,0.00,VWS V14.01,2013-06-27 19:18:00,
2013-06-27 09:23:00,75.7,66.4,30.01,East,96,9.0,11.0,73,0.00,,,0.00,VWS V14.01,2013-06-27 19:23:00,
2013-06-27 09:28:00,76.3,65.8,30.01,ESE,104,11.0,11.0,70,0.00,,,0.00,VWS V14.01,2013-06-27 19:28:00,
2013-06-27 09:33:00,75.7,66.0,30.01,East,83,15.0,16.0,72,0.00,,,0.00,VWS V14.01,2013-06-27 19:33:00,
2013-06-27 09:38:00,75.5,65.4,30.02,East,97,10.0,10.0,71,0.00,,,0.00,VWS V14.01,2013-06-27 19:38:00,
2013-06-27 09:43:00,75.8,65.3,30.02,East,83,13.0,14.0,70,0.00,,,0.00,VWS V14.01,2013-06-27 19:43:00,
2013-06-27 09:48:00,75.9,65.4,30.01,East,90,18.0,18.0,70,0.00,,,0.00,VWS V14.01,2013-06-27 19:48:00,
2013-06-27 09:53:00,76.0,65.5,30.02,East,91,11.0,11.0,70,0.00,,,0.00,VWS V14.01,2013-06-27 19:53:00,
2013-06-27 09:58:00,75.6,65.9,30.02,NE,45,8.0,13.0,72,0.00,,,0.00,VWS V14.01,2013-06-27 19:58:00,
2013-06-27 10:03:00,75.6,66.3,30.01,East,94,10.0,10.0,73,0.00,,,0.00,VWS V14.01,2013-06-27 20:03:00,
2013-06-27 10:09:00,76.8,67.5,30.01,NE,40,9.0,10.0,73,0.00,,,0.00,VWS V14.01,2013-06-27 20:09:00,
2013-06-27 10:14:00,77.0,66.5,30.01,ENE,66,10.0,10.0,70,0.00,,,0.00,VWS V14.01,2013-06-27 20:14:00,
2013-06-27 10:19:00,76.6,66.1,30.01,NE,56,17.0,17.0,70,0.00,,,0.00,VWS V14.01,2013-06-27 20:19:00,
2013-06-27 10:24:00,76.2,65.7,30.01,NE,50,9.0,10.0,70,0.00,,,0.00,VWS V14.01,2013-06-27 20:24:00,
2013-06-27 10:30:00,76.5,65.2,30.01,East,86,10.0,10.0,68,0.00,,,0.00,VWS V14.01,2013-06-27 20:30:00,
2013-06-27 10:36:00,76.2,65.7,30.00,East,99,15.0,15.0,70,0.00,,,0.00,VWS V14.01,2013-06-27 20:36:00,
2013-06-27 10:41:00,76.2,65.3,30.01,ESE,104,17.0,17.0,69,0.00,,,0.00,VWS V14.01,2013-06-27 20:41:00,
2013-06-27 10:46:00,76.6,65.7,30.01,ESE,102,12.0,16.0,69,0.00,,,0.00,VWS V14.01,2013-06-27 20:46:00,
2013-06-27 10:51:00,76.8,66.3,30.00,ESE,113,10.0,13.0,70,0.00,,,0.00,VWS V14.01,2013-06-27 20:51:00,
2013-06-27 10:56:00,76.6,66.5,30.01,ENE,71,8.0,15.0,71,0.00,,,0.00,VWS V14.01,2013-06-27 20:56:00,
2013-06-27 11:01:00,76.5,66.4,30.01,ESE,116,9.0,14.0,71,0.00,,,0.00,VWS V14.01,2013-06-27 21:01:00,
2013-06-27 11:06:00,76.6,66.1,30.01,NE,41,8.0,11.0,70,0.00,,,0.00,VWS V14.01,2013-06-27 21:06:00,
2013-06-27 11:11:00,76.6,66.1,30.01,ESE,108,13.0,14.0,70,0.00,,,0.00,VWS V14.01,2013-06-27 21:11:00,
2013-06-27 11:16:00,76.5,66.8,30.01,ENE,73,14.0,14.0,72,0.00,,,0.00,VWS V14.01,2013-06-27 21:16:00,
2013-06-27 11:21:00,76.9,66.8,30.00,East,90,12.0,12.0,71,0.00,,,0.00,VWS V14.01,2013-06-27 21:21:00,
2013-06-27 11:26:00,77.1,65.3,30.01,ENE,64,16.0,16.0,67,0.00,,,0.00,VWS V14.01,2013-06-27 21:26:00,
2013-06-27 11:31:00,76.8,64.2,30.00,ENE,57,11.0,14.0,65,0.00,,,0.00,VWS V14.01,2013-06-27 21:31:00,
2013-06-27 11:36:00,77.3,64.2,30.00,ESE,106,9.0,9.0,64,0.00,,,0.00,VWS V14.01,2013-06-27 21:36:00,
2013-06-27 11:42:00,77.2,65.4,30.00,ENE,74,11.0,11.0,67,0.00,,,0.00,VWS V14.01,2013-06-27 21:42:00,
2013-06-27 11:47:00,77.2,65.4,30.00,East,98,13.0,13.0,67,0.00,,,0.00,VWS V14.01,2013-06-27 21:47:00,
2013-06-27 11:53:00,77.3,65.5,30.00,East,97,11.0,11.0,67,0.00,,,0.00,VWS V14.01,2013-06-27 21:53:00,
2013-06-27 11:58:00,76.8,64.6,30.00,ENE,59,12.0,15.0,66,0.00,,,0.00,VWS V14.01,2013-06-27 21:58:00,
2013-06-27 12:03:00,77.2,65.0,30.00,NE,46,9.0,11.0,66,0.00,,,0.00,VWS V14.01,2013-06-27 22:03:00,
2013-06-27 12:08:00,76.9,65.5,30.00,ENE,57,11.0,11.0,68,0.00,,,0.00,VWS V14.01,2013-06-27 22:08:00,
2013-06-27 12:14:00,77.1,65.7,30.00,East,98,14.0,17.0,68,0.00,,,0.00,VWS V14.01,2013-06-27 22:14:00,
2013-06-27 12:19:00,77.4,65.6,30.00,ENE,78,9.0,12.0,67,0.00,,,0.00,VWS V14.01,2013-06-27 22:19:00,
2013-06-27 12:24:00,77.9,65.6,29.99,ENE,60,11.0,18.0,66,0.00,,,0.00,VWS V14.01,2013-06-27 22:24:00,
2013-06-27 12:29:00,77.1,65.7,29.99,ENE,61,12.0,14.0,68,0.00,,,0.00,VWS V14.01,2013-06-27 22:29:00,
2013-06-27 12:34:00,76.9,65.5,29.99,ENE,66,12.0,14.0,68,0.00,,,0.00,VWS V14.01,2013-06-27 22:34:00,
2013-06-27 12:39:00,77.0,66.9,29.99,East,100,11.0,11.0,71,0.00,,,0.00,VWS V14.01,2013-06-27 22:39:00,
2013-06-27 12:44:00,76.7,65.8,29.99,ESE,106,12.0,12.0,69,0.00,,,0.00,VWS V14.01,2013-06-27 22:44:00,
2013-06-27 12:49:00,77.6,65.8,29.98,ENE,71,15.0,16.0,67,0.00,,,0.00,VWS V14.01,2013-06-27 22:49:00,
2013-06-27 12:55:00,77.4,65.6,29.98,ESE,104,14.0,14.0,67,0.00,,,0.00,VWS V14.01,2013-06-27 22:55:00,
2013-06-27 13:00:00,77.1,64.9,29.98,NNE,16,14.0,15.0,66,0.00,,,0.00,VWS V14.01,2013-06-27 23:00:00,
2013-06-27 13:05:00,77.3,65.5,29.98,NE,50,6.0,6.0,67,0.00,,,0.00,VWS V14.01,2013-06-27 23:05:00,
2013-06-27 13:10:00,77.1,64.9,29.99,NE,50,12.0,12.0,66,0.00,,,0.00,VWS V14.01,2013-06-27 23:10:00,
2013-06-27 13:15:00,77.2,66.2,29.98,ENE,60,11.0,13.0,69,0.00,,,0.00,VWS V14.01,2013-06-27 23:15:00,
2013-06-27 13:20:00,76.6,65.3,29.98,ENE,64,13.0,13.0,68,0.00,,,0.00,VWS V14.01,2013-06-27 23:20:00,
2013-06-27 13:25:00,76.8,66.7,29.98,East,85,8.0,13.0,71,0.00,,,0.00,VWS V14.01,2013-06-27 23:25:00,
2013-06-27 13:31:00,76.5,66.8,29.98,ESE,103,11.0,12.0,72,0.00,,,0.00,VWS V14.01,2013-06-27 23:31:00,
2013-06-27 13:36:00,76.0,65.9,29.98,NE,55,7.0,9.0,71,0.00,,,0.00,VWS V14.01,2013-06-27 23:36:00,
2013-06-27 13:41:00,76.4,66.3,29.98,NE,55,11.0,13.0,71,0.00,,,0.00,VWS V14.01,2013-06-27 23:41:00,
2013-06-27 13:46:00,76.6,66.5,29.98,ENE,57,11.0,14.0,71,0.00,,,0.00,VWS V14.01,2013-06-27 23:46:00,
2013-06-27 13:51:00,76.4,65.9,29.98,East,88,11.0,16.0,70,0.00,,,0.00,VWS V14.01,2013-06-27 23:51:00,
2013-06-27 13:56:00,76.7,66.6,29.98,ENE,76,10.0,11.0,71,0.00,,,0.00,VWS V14.01,2013-06-27 23:56:00,
2013-06-27 14:01:00,76.1,67.2,29.98,NE,50,10.0,12.0,74,0.00,,,0.00,VWS V14.01,2013-06-28 00:01:00,
2013-06-27 14:06:00,75.7,66.8,29.98,East,91,19.0,19.0,74,0.00,,,0.00,VWS V14.01,2013-06-28 00:06:00,
2013-06-27 14:11:00,75.0,66.6,29.97,ENE,64,11.0,12.0,75,0.00,,,0.00,VWS V14.01,2013-06-28 00:11:00,
2013-06-27 14:16:00,75.3,66.4,29.97,NE,55,12.0,16.0,74,0.00,,,0.00,VWS V14.01,2013-06-28 00:16:00,
2013-06-27 14:21:00,75.4,66.9,29.97,NE,56,12.0,14.0,75,0.00,,,0.00,VWS V14.01,2013-06-28 00:21:00,
2013-06-27 14:26:00,75.3,67.2,29.97,ENE,66,18.0,19.0,76,0.00,,,0.00,VWS V14.01,2013-06-28 00:26:00,
2013-06-27 14:31:00,75.3,66.8,29.97,East,85,12.0,17.0,75,0.00,,,0.00,VWS V14.01,2013-06-28 00:31:00,
2013-06-27 14:37:00,75.3,66.8,29.97,NNE,20,17.0,17.0,75,0.00,,,0.00,VWS V14.01,2013-06-28 00:37:00,
2013-06-27 14:42:00,75.1,65.9,29.97,NE,54,13.0,13.0,73,0.00,,,0.00,VWS V14.01,2013-06-28 00:42:00,
2013-06-27 14:47:00,75.3,67.2,29.97,ENE,68,14.0,15.0,76,0.00,,,0.00,VWS V14.01,2013-06-28 00:47:00,
2013-06-27 14:52:00,74.9,66.4,29.97,NNE,31,10.0,13.0,75,0.00,,,0.00,VWS V14.01,2013-06-28 00:52:00,
2013-06-27 14:57:00,75.0,66.9,29.96,East,99,12.0,14.0,76,0.00,,,0.00,VWS V14.01,2013-06-28 00:57:00,
2013-06-27 15:02:00,75.0,66.9,29.96,ENE,60,9.0,12.0,76,0.00,,,0.00,VWS V14.01,2013-06-28 01:02:00,
2013-06-27 15:07:00,74.6,66.5,29.96,ESE,103,12.0,12.0,76,0.00,,,0.00,VWS V14.01,2013-06-28 01:07:00,
2013-06-27 15:12:00,74.4,66.7,29.96,NE,35,11.0,15.0,77,0.00,,,0.00,VWS V14.01,2013-06-28 01:12:00,
2013-06-27 15:18:00,74.4,66.7,29.96,ENE,58,11.0,13.0,77,0.00,,,0.00,VWS V14.01,2013-06-28 01:18:00,
2013-06-27 15:23:00,74.5,66.4,29.97,NE,49,9.0,9.0,76,0.00,,,0.00,VWS V14.01,2013-06-28 01:23:00,
2013-06-27 15:28:00,74.6,66.2,29.96,NE,54,10.0,11.0,75,0.00,,,0.00,VWS V14.01,2013-06-28 01:28:00,
2013-06-27 15:33:00,74.7,66.6,29.96,ENE,63,11.0,15.0,76,0.00,,,0.00,VWS V14.01,2013-06-28 01:33:00,
2013-06-27 15:38:00,74.6,66.2,29.96,ENE,61,9.0,10.0,75,0.00,,,0.00,VWS V14.01,2013-06-28 01:38:00,
2013-06-27 15:43:00,74.6,65.8,29.96,ENE,74,13.0,13.0,74,0.00,,,0.00,VWS V14.01,2013-06-28 01:43:00,
2013-06-27 15:48:00,74.7,65.9,29.96,ESE,106,10.0,13.0,74,0.00,,,0.00,VWS V14.01,2013-06-28 01:48:00,
2013-06-27 15:53:00,74.4,65.6,29.97,ENE,72,12.0,14.0,74,0.00,,,0.00,VWS V14.01,2013-06-28 01:53:00,
2013-06-27 15:58:00,74.4,65.6,29.96,East,87,11.0,11.0,74,0.00,,,0.00,VWS V14.01,2013-06-28 01:58:00,
2013-06-27 16:04:00,74.3,65.5,29.96,NE,46,7.0,7.0,74,0.00,,,0.00,VWS V14.01,2013-06-28 02:04:00,
2013-06-27 16:09:00,74.1,65.3,29.96,NE,51,10.0,10.0,74,0.00,,,0.00,VWS V14.01,2013-06-28 02:09:00,
2013-06-27 16:14:00,74.4,66.0,29.96,NNE,23,5.0,8.0,75,0.00,,,0.00,VWS V14.01,2013-06-28 02:14:00,
2013-06-27 16:19:00,74.3,65.9,29.96,East,87,8.0,13.0,75,0.00,,,0.00,VWS V14.01,2013-06-28 02:19:00,
2013-06-27 16:24:00,74.2,65.8,29.96,ENE,76,9.0,9.0,75,0.00,,,0.00,VWS V14.01,2013-06-28 02:24:00,
2013-06-27 16:29:00,74.5,65.7,29.96,ENE,64,15.0,15.0,74,0.00,,,0.00,VWS V14.01,2013-06-28 02:29:00,
2013-06-27 16:34:00,74.3,65.9,29.96,ENE,58,12.0,16.0,75,0.00,,,0.00,VWS V14.01,2013-06-28 02:34:00,
2013-06-27 16:40:00,74.6,65.8,29.96,East,96,12.0,12.0,74,0.00,,,0.00,VWS V14.01,2013-06-28 02:40:00,
2013-06-27 16:45:00,74.9,65.7,29.96,NE,42,9.0,9.0,73,0.00,,,0.00,VWS V14.01,2013-06-28 02:45:00,
2013-06-27 16:50:00,74.7,65.9,29.97,NE,54,11.0,14.0,74,0.00,,,0.00,VWS V14.01,2013-06-28 02:50:00,
2013-06-27 16:55:00,74.4,66.0,29.96,NE,56,13.0,13.0,75,0.00,,,0.00,VWS V14.01,2013-06-28 02:55:00,
2013-06-27 17:00:00,74.4,65.6,29.96,East,98,14.0,14.0,74,0.00,,,0.00,VWS V14.01,2013-06-28 03:00:00,
2013-06-27 17:05:00,74.7,66.3,29.96,ENE,71,6.0,9.0,75,0.00,,,0.00,VWS V14.01,2013-06-28 03:05:00,
2013-06-27 17:10:00,74.9,66.1,29.96,East,89,12.0,13.0,74,0.00,,,0.00,VWS V14.01,2013-06-28 03:10:00,
2013-06-27 17:15:00,74.4,65.6,29.97,ENE,57,12.0,12.0,74,0.00,,,0.00,VWS V14.01,2013-06-28 03:15:00,
2013-06-27 17:20:00,74.3,66.2,29.97,NE,35,9.0,9.0,76,0.00,,,0.00,VWS V14.01,2013-06-28 03:20:00,
2013-06-27 17:26:00,74.3,65.9,29.97,NE,54,12.0,12.0,75,0.00,,,0.00,VWS V14.01,2013-06-28 03:26:00,
2013-06-27 17:31:00,73.8,65.8,29.97,ENE,66,7.0,8.0,76,0.00,,,0.00,VWS V14.01,2013-06-28 03:31:00,
2013-06-27 17:36:00,73.5,65.9,29.97,ENE,63,8.0,10.0,77,0.00,,,0.00,VWS V14.01,2013-06-28 03:36:00,
2013-06-27 17:41:00,73.3,65.7,29.97,ENE,66,7.0,10.0,77,0.00,,,0.00,VWS V14.01,2013-06-28 03:41:00,
2013-06-27 17:46:00,73.2,65.6,29.97,East,87,10.0,11.0,77,0.00,,,0.00,VWS V14.01,2013-06-28 03:46:00,
2013-06-27 17:51:00,73.0,65.4,29.97,ENE,76,8.0,8.0,77,0.00,,,0.00,VWS V14.01,2013-06-28 03:51:00,
2013-06-27 17:56:00,73.1,65.8,29.97,NE,47,11.0,11.0,78,0.00,,,0.00,VWS V14.01,2013-06-28 03:56:00,
2013-06-27 18:01:00,73.0,65.7,29.98,NE,39,6.0,6.0,78,0.00,,,0.00,VWS V14.01,2013-06-28 04:01:00,
2013-06-27 18:02:00,73.1,65.8,29.98,NE,54,11.0,12.0,78,0.00,,,0.00,VWS V14.01,2013-06-28 04:02:00,
2013-06-27 18:07:00,73.1,66.2,29.98,East,92,11.0,11.0,79,0.00,,,0.00,VWS V14.01,2013-06-28 04:07:00,
2013-06-27 18:12:00,73.1,66.2,29.98,ENE,64,5.0,5.0,79,0.00,,,0.00,VWS V14.01,2013-06-28 04:12:00,
2013-06-27 18:17:00,73.1,66.2,29.98,ENE,62,11.0,11.0,79,0.00,,,0.00,VWS V14.01,2013-06-28 04:17:00,
2013-06-27 18:22:00,73.0,66.1,29.98,NE,40,10.0,15.0,79,0.00,,,0.00,VWS V14.01,2013-06-28 04:22:00,
2013-06-27 18:27:00,72.9,66.0,29.98,ENE,72,10.0,12.0,79,0.00,,,0.00,VWS V14.01,2013-06-28 04:27:00,
2013-06-27 18:32:00,72.8,65.9,29.98,NE,54,8.0,11.0,79,0.00,,,0.00,VWS V14.01,2013-06-28 04:32:00,
2013-06-27 18:37:00,72.8,65.9,29.98,East,92,8.0,8.0,79,0.00,,,0.00,VWS V14.01,2013-06-28 04:37:00,
2013-06-27 18:42:00,72.7,65.8,29.98,ENE,68,6.0,8.0,79,0.00,,,0.00,VWS V14.01,2013-06-28 04:42:00,
2013-06-27 18:47:00,72.7,65.8,29.98,ENE,68,9.0,9.0,79,0.00,,,0.00,VWS V14.01,2013-06-28 04:47:00,
2013-06-27 18:52:00,72.6,65.7,29.99,NE,39,7.0,9.0,79,0.00,,,0.00,VWS V14.01,2013-06-28 04:52:00,
2013-06-27 18:57:00,72.4,65.5,29.99,ENE,64,9.0,9.0,79,0.00,,,0.00,VWS V14.01,2013-06-28 04:57:00,
2013-06-27 19:03:00,72.4,65.5,29.98,NE,42,6.0,9.0,79,0.00,,,0.00,VWS V14.01,2013-06-28 05:03:00,
2013-06-27 19:08:00,72.3,65.4,29.98,ENE,59,8.0,8.0,79,0.00,,,0.00,VWS V14.01,2013-06-28 05:08:00,
2013-06-27 19:13:00,72.1,65.2,29.99,ENE,64,8.0,8.0,79,0.00,,,0.00,VWS V14.01,2013-06-28 05:13:00,
2013-06-27 19:18:00,72.0,65.1,29.99,NE,40,6.0,9.0,79,0.00,,,0.00,VWS V14.01,2013-06-28 05:18:00,
2013-06-27 19:23:00,72.0,65.1,29.99,NE,41,7.0,7.0,79,0.00,,,0.00,VWS V14.01,2013-06-28 05:23:00,
2013-06-27 19:28:00,72.0,65.1,29.99,NE,50,6.0,7.0,79,0.00,,,0.00,VWS V14.01,2013-06-28 05:28:00,
2013-06-27 19:33:00,71.9,65.0,29.99,NE,42,6.0,7.0,79,0.00,,,0.00,VWS V14.01,2013-06-28 05:33:00,
2013-06-27 19:38:00,71.9,65.0,29.99,East,90,5.0,8.0,79,0.00,,,0.00,VWS V14.01,2013-06-28 05:38:00,
2013-06-27 19:43:00,71.8,64.9,29.99,NE,45,6.0,6.0,79,0.00,,,0.00,VWS V14.01,2013-06-28 05:43:00,
2013-06-27 19:48:00,71.8,64.9,29.99,ENE,60,5.0,6.0,79,0.00,,,0.00,VWS V14.01,2013-06-28 05:48:00,
2013-06-27 19:53:00,71.7,64.8,29.99,NE,42,10.0,12.0,79,0.00,,,0.00,VWS V14.01,2013-06-28 05:53:00,
2013-06-27 19:58:00,71.7,64.8,30.00,NE,55,6.0,6.0,79,0.00,,,0.00,VWS V14.01,2013-06-28 05:58:00,
2013-06-27 20:04:00,71.8,64.9,30.00,NNE,26,4.0,5.0,79,0.00,,,0.00,VWS V14.01,2013-06-28 06:04:00,
2013-06-27 20:09:00,71.7,65.2,30.00,ENE,76,4.0,7.0,80,0.00,,,0.00,VWS V14.01,2013-06-28 06:09:00,
2013-06-27 20:14:00,71.6,65.1,30.00,NNE,21,7.0,9.0,80,0.00,,,0.00,VWS V14.01,2013-06-28 06:14:00,
2013-06-27 20:19:00,71.6,65.1,30.00,NNE,33,4.0,5.0,80,0.00,,,0.00,VWS V14.01,2013-06-28 06:19:00,
2013-06-27 20:24:00,71.6,65.1,30.00,NNE,12,6.0,6.0,80,0.00,,,0.00,VWS V14.01,2013-06-28 06:24:00,
2013-06-27 20:29:00,71.6,65.5,30.00,NE,48,6.0,8.0,81,0.00,,,0.00,VWS V14.01,2013-06-28 06:29:00,
2013-06-27 20:34:00,71.5,65.4,30.00,NE,50,8.0,8.0,81,0.00,,,0.00,VWS V14.01,2013-06-28 06:34:00,
2013-06-27 20:39:00,71.5,65.0,30.00,ENE,77,7.0,11.0,80,0.00,,,0.00,VWS V14.01,2013-06-28 06:39:00,
2013-06-27 20:44:00,71.5,65.0,30.00,NE,35,7.0,7.0,80,0.00,,,0.00,VWS V14.01,2013-06-28 06:44:00,
2013-06-27 20:49:00,71.4,64.9,30.00,NNE,29,9.0,10.0,80,0.00,,,0.00,VWS V14.01,2013-06-28 06:49:00,
2013-06-27 20:54:00,71.5,65.0,30.00,NNE,33,7.0,8.0,80,0.00,,,0.00,VWS V14.01,2013-06-28 06:54:00,
2013-06-27 20:59:00,71.5,65.4,30.00,NE,34,6.0,6.0,81,0.00,,,0.00,VWS V14.01,2013-06-28 06:59:00,
2013-06-27 21:04:00,71.4,65.3,30.00,NNE,12,15.0,16.0,81,0.00,,,0.00,VWS V14.01,2013-06-28 07:04:00,
2013-06-27 21:09:00,71.4,64.6,30.00,North,357,12.0,12.0,79,0.00,,,0.00,VWS V14.01,2013-06-28 07:09:00,
2013-06-27 21:14:00,71.5,64.3,30.00,NE,35,8.0,13.0,78,0.00,,,0.00,VWS V14.01,2013-06-28 07:14:00,
2013-06-27 21:15:00,71.5,64.3,30.00,NE,43,9.0,9.0,78,0.00,,,0.00,VWS V14.01,2013-06-28 07:15:00,
2013-06-27 21:20:00,71.5,63.5,30.01,NE,52,9.0,15.0,76,0.00,,,0.00,VWS V14.01,2013-06-28 07:20:00,
2013-06-27 21:25:00,71.8,63.5,30.00,North,3,8.0,13.0,75,0.00,,,0.00,VWS V14.01,2013-06-28 07:25:00,
2013-06-27 21:30:00,72.0,63.3,30.01,NNE,33,7.0,9.0,74,0.00,,,0.00,VWS V14.01,2013-06-28 07:30:00,
2013-06-27 21:35:00,72.0,63.3,30.01,NNE,29,8.0,8.0,74,0.00,,,0.00,VWS V14.01,2013-06-28 07:35:00,
2013-06-27 21:41:00,72.0,63.7,30.01,NNE,18,10.0,14.0,75,0.00,,,0.00,VWS V14.01,2013-06-28 07:41:00,
2013-06-27 21:46:00,71.9,63.5,30.01,NE,45,6.0,7.0,75,0.00,,,0.00,VWS V14.01,2013-06-28 07:46:00,
2013-06-27 21:51:00,71.8,63.8,30.01,NNE,22,9.0,9.0,76,0.00,,,0.00,VWS V14.01,2013-06-28 07:51:00,
2013-06-27 21:56:00,71.6,63.3,30.01,NNE,28,7.0,10.0,75,0.00,,,0.00,VWS V14.01,2013-06-28 07:56:00,
2013-06-27 22:01:00,71.6,62.9,30.01,NE,40,15.0,15.0,74,0.00,,,0.00,VWS V14.01,2013-06-28 08:01:00,
2013-06-27 22:06:00,71.6,62.9,30.01,North,1,6.0,6.0,74,0.00,,,0.00,VWS V14.01,2013-06-28 08:06:00,
2013-06-27 22:11:00,71.9,62.0,30.02,NNE,32,16.0,16.0,71,0.00,,,0.00,VWS V14.01,2013-06-28 08:11:00,
2013-06-27 22:16:00,72.4,62.1,30.02,NNE,21,9.0,9.0,70,0.00,,,0.00,VWS V14.01,2013-06-28 08:16:00,
2013-06-27 22:21:00,72.3,62.8,30.02,NE,51,13.0,13.0,72,0.00,,,0.00,VWS V14.01,2013-06-28 08:21:00,
2013-06-27 22:26:00,72.2,63.5,30.02,NNE,26,10.0,11.0,74,0.00,,,0.00,VWS V14.01,2013-06-28 08:26:00,
2013-06-27 22:31:00,72.2,63.1,30.02,ENE,65,10.0,11.0,73,0.00,,,0.00,VWS V14.01,2013-06-28 08:31:00,
2013-06-27 22:37:00,72.3,63.6,30.02,North,11,10.0,10.0,74,0.00,,,0.00,VWS V14.01,2013-06-28 08:37:00,
2013-06-27 22:42:00,72.5,63.0,30.02,NNE,26,8.0,8.0,72,0.00,,,0.00,VWS V14.01,2013-06-28 08:42:00,
2013-06-27 22:47:00,72.5,63.4,30.02,NNE,21,11.0,11.0,73,0.00,,,0.00,VWS V14.01,2013-06-28 08:47:00,
2013-06-27 22:52:00,72.5,63.0,30.02,NNE,29,7.0,7.0,72,0.00,,,0.00,VWS V14.01,2013-06-28 08:52:00,
2013-06-27 22:57:00,72.5,63.4,30.02,NE,37,6.0,8.0,73,0.00,,,0.00,VWS V14.01,2013-06-28 08:57:00,
2013-06-27 23:02:00,72.5,63.4,30.02,NNE,29,6.0,9.0,73,0.00,,,0.00,VWS V14.01,2013-06-28 09:02:00,
2013-06-27 23:07:00,72.4,63.7,30.02,NE,40,6.0,6.0,74,0.00,,,0.00,VWS V14.01,2013-06-28 09:07:00,
2013-06-27 23:12:00,72.2,63.5,30.02,North,5,8.0,8.0,74,0.00,,,0.00,VWS V14.01,2013-06-28 09:12:00,
2013-06-27 23:17:00,72.2,64.2,30.02,NE,50,6.0,11.0,76,0.00,,,0.00,VWS V14.01,2013-06-28 09:17:00,
2013-06-27 23:22:00,72.1,64.5,30.01,East,85,9.0,9.0,77,0.00,,,0.00,VWS V14.01,2013-06-28 09:22:00,
2013-06-27 23:27:00,72.1,64.9,30.01,NNE,22,4.0,7.0,78,0.00,,,0.00,VWS V14.01,2013-06-28 09:27:00,
2013-06-27 23:32:00,71.9,65.0,30.01,NE,50,7.0,8.0,79,0.00,,,0.00,VWS V14.01,2013-06-28 09:32:00,
2013-06-27 23:37:00,71.9,65.0,30.01,NE,43,8.0,8.0,79,0.00,,,0.00,VWS V14.01,2013-06-28 09:37:00,
2013-06-27 23:43:00,71.7,64.8,30.00,NNE,33,7.0,8.0,79,0.00,,,0.00,VWS V14.01,2013-06-28 09:43:00,
2013-06-27 23:48:00,71.5,64.7,30.00,NNE,31,5.0,11.0,79,0.00,,,0.00,VWS V14.01,2013-06-28 09:48:00,
2013-06-27 23:53:00,71.5,64.7,30.00,NE,39,9.0,10.0,79,0.00,,,0.00,VWS V14.01,2013-06-28 09:53:00,
2013-06-27 23:58:00,71.5,64.7,30.00,NNE,21,5.0,7.0,79,0.00,,,0.00,VWS V14.01,2013-06-28 09:58:00,